Time;durP1;ratioP1;P1;durP2;ratioP2;P2;SDS_P1;SDS_P2;PMS_P1;PMS_P2;Temp;Humidity;BMP_temperature;BMP_pressure;BME280_temperature;BME280_humidity;BME280_pressure;Samples;Min_cycle;Max_cycle;Signal;HPM_P1;HPM_P2
2023/12/06 00:00:22;;;;;;;0.90;0.90;;;9.10;66.00;;;;;;5042189;28;20250;-55
2023/12/06 00:02:48;;;;;;;1.67;0.87;;;8.80;66.30;;;;;;5045788;28;20197;-52
2023/12/06 00:05:13;;;;;;;0.87;0.87;;;9.00;66.80;;;;;;5044403;28;20184;-56
2023/12/06 00:07:39;;;;;;;0.87;0.83;;;8.90;66.40;;;;;;5043827;28;20997;-56
2023/12/06 00:10:05;;;;;;;0.67;0.60;;;8.80;67.00;;;;;;5045534;28;20570;-52
2023/12/06 00:12:31;;;;;;;0.80;0.80;;;9.00;66.80;;;;;;5046485;28;20623;-54
2023/12/06 00:14:57;;;;;;;0.80;0.80;;;9.10;66.50;;;;;;5039536;28;20493;-54
2023/12/06 00:17:22;;;;;;;0.80;0.70;;;9.30;66.00;;;;;;5043288;28;20207;-52
2023/12/06 00:19:48;;;;;;;0.77;0.77;;;9.20;65.00;;;;;;5047200;28;20211;-55
2023/12/06 00:22:13;;;;;;;0.87;0.87;;;9.40;65.30;;;;;;5044296;28;20192;-56
2023/12/06 00:24:39;;;;;;;0.90;0.90;;;9.60;64.50;;;;;;5046183;28;20201;-52
2023/12/06 00:27:04;;;;;;;0.97;0.87;;;9.70;64.20;;;;;;5048018;28;20227;-55
2023/12/06 00:29:30;;;;;;;0.77;0.77;;;9.70;63.80;;;;;;5047317;28;20236;-56
2023/12/06 00:31:55;;;;;;;0.97;0.90;;;9.60;63.50;;;;;;5045465;28;20216;-53
2023/12/06 00:34:21;;;;;;;1.10;0.80;;;9.40;63.80;;;;;;5045677;28;20193;-56
2023/12/06 00:36:48;;;;;;;1.00;0.90;;;9.40;64.40;;;;;;5046334;28;20191;-55
2023/12/06 00:39:14;;;;;;;1.53;1.30;;;9.30;64.60;;;;;;5046701;28;20204;-53
2023/12/06 00:41:40;;;;;;;0.73;0.73;;;9.20;64.80;;;;;;5044068;28;20444;-54
2023/12/06 00:44:06;;;;;;;0.90;0.80;;;9.40;64.80;;;;;;5045770;28;20458;-56
2023/12/06 00:46:31;;;;;;;0.83;0.83;;;9.50;64.40;;;;;;5046105;28;22551;-55
2023/12/06 00:48:58;;;;;;;0.77;0.77;;;9.50;64.20;;;;;;5042864;28;20215;-55
2023/12/06 00:51:24;;;;;;;2.33;1.00;;;9.50;64.00;;;;;;5044647;28;20244;-52
2023/12/06 00:53:50;;;;;;;0.70;0.70;;;9.60;64.00;;;;;;5047103;28;20474;-53
2023/12/06 00:56:15;;;;;;;1.20;1.10;;;9.60;63.90;;;;;;5045309;28;20914;-55
2023/12/06 00:58:44;;;;;;;1.20;1.00;;;9.70;63.40;;;;;;5046373;28;20196;-53
2023/12/06 01:01:12;;;;;;;1.63;0.80;;;9.50;63.50;;;;;;5045612;28;20215;-52
2023/12/06 01:03:38;;;;;;;0.80;0.80;;;9.60;63.60;;;;;;5046771;28;20883;-56
2023/12/06 01:06:04;;;;;;;0.63;0.63;;;9.80;63.10;;;;;;5044994;28;20451;-54
2023/12/06 01:08:30;;;;;;;0.83;0.70;;;10.00;61.40;;;;;;5029781;28;20419;-55
2023/12/06 01:10:55;;;;;;;0.97;0.87;;;9.80;62.60;;;;;;5044963;28;20188;-53
2023/12/06 01:13:21;;;;;;;2.77;1.00;;;9.80;62.80;;;;;;5046034;28;20180;-54
2023/12/06 01:15:47;;;;;;;1.13;0.80;;;9.90;62.60;;;;;;5037698;28;20708;-57
2023/12/06 01:18:13;;;;;;;1.63;0.70;;;9.80;62.50;;;;;;5043109;28;20193;-54
2023/12/06 01:20:39;;;;;;;0.60;0.60;;;9.90;62.50;;;;;;5036482;28;20751;-53
2023/12/06 01:23:05;;;;;;;1.13;0.73;;;9.90;62.50;;;;;;5045305;28;20442;-54
2023/12/06 01:25:32;;;;;;;0.90;0.90;;;9.90;62.50;;;;;;5040702;28;20431;-55
2023/12/06 01:27:57;;;;;;;0.87;0.83;;;10.00;61.40;;;;;;5042217;28;21214;-55
2023/12/06 01:30:24;;;;;;;1.23;1.13;;;10.00;61.30;;;;;;5043767;28;20454;-56
2023/12/06 01:32:49;;;;;;;0.77;0.70;;;9.90;62.60;;;;;;5042166;28;20242;-56
2023/12/06 01:35:15;;;;;;;1.40;0.90;;;9.70;63.00;;;;;;5044912;28;20938;-54
2023/12/06 01:37:40;;;;;;;0.60;0.60;;;9.80;63.90;;;;;;5038973;28;20205;-52
2023/12/06 01:40:06;;;;;;;0.70;0.60;;;9.70;63.30;;;;;;5045375;28;20213;-54
2023/12/06 01:42:32;;;;;;;0.73;0.60;;;9.60;63.40;;;;;;5045518;28;20652;-54
2023/12/06 01:44:58;;;;;;;0.80;0.60;;;9.50;63.50;;;;;;5044434;28;20491;-56
2023/12/06 01:47:26;;;;;;;0.80;0.60;;;9.70;64.40;;;;;;5043836;28;20188;-55
2023/12/06 01:49:53;;;;;;;0.80;0.70;;;9.70;63.80;;;;;;5043409;28;20554;-53
2023/12/06 01:52:18;;;;;;;0.87;0.67;;;9.70;64.00;;;;;;5045602;28;20487;-57
2023/12/06 01:54:44;;;;;;;0.60;0.60;;;9.70;64.60;;;;;;5045478;28;20445;-56
2023/12/06 01:57:11;;;;;;;0.73;0.73;;;9.70;63.90;;;;;;5050414;28;20180;-57
2023/12/06 01:59:39;;;;;;;1.17;0.80;;;9.60;64.30;;;;;;5047839;28;20215;-55
2023/12/06 02:02:05;;;;;;;0.87;0.80;;;9.60;64.60;;;;;;5047626;28;20482;-55
2023/12/06 02:04:33;;;;;;;1.47;0.70;;;9.70;64.50;;;;;;5042617;28;20830;-55
2023/12/06 02:06:59;;;;;;;0.73;0.70;;;9.80;64.60;;;;;;5048668;28;20188;-55
2023/12/06 02:09:26;;;;;;;0.93;0.73;;;9.90;64.50;;;;;;5049717;28;21080;-53
2023/12/06 02:11:52;;;;;;;0.73;0.70;;;9.90;64.10;;;;;;5047075;28;20466;-56
2023/12/06 02:14:17;;;;;;;1.70;0.90;;;10.00;62.90;;;;;;5046103;28;20465;-55
2023/12/06 02:16:44;;;;;;;0.63;0.63;;;10.10;62.60;;;;;;5046654;28;22019;-56
2023/12/06 02:19:15;;;;;;;0.87;0.63;;;10.00;62.40;;;;;;5048202;28;20299;-55
2023/12/06 02:21:41;;;;;;;0.60;0.60;;;10.00;62.40;;;;;;5042872;28;20513;-52
2023/12/06 02:24:07;;;;;;;0.80;0.70;;;9.90;63.70;;;;;;5049889;28;20453;-55
2023/12/06 02:26:32;;;;;;;0.70;0.70;;;10.00;62.70;;;;;;5050004;28;20435;-55
2023/12/06 02:28:58;;;;;;;0.70;0.70;;;10.00;62.50;;;;;;5050614;28;20204;-57
2023/12/06 02:31:23;;;;;;;0.80;0.70;;;9.90;63.80;;;;;;5046904;28;20224;-57
2023/12/06 02:33:51;;;;;;;0.63;0.63;;;9.80;64.40;;;;;;5041717;28;20193;-57
2023/12/06 02:36:19;;;;;;;0.87;0.87;;;10.00;63.00;;;;;;5046610;28;20188;-56
2023/12/06 02:38:45;;;;;;;0.70;0.70;;;10.10;62.70;;;;;;5045389;28;21015;-55
2023/12/06 02:41:13;;;;;;;0.93;0.70;;;10.20;62.50;;;;;;5046106;28;20935;-53
2023/12/06 02:43:39;;;;;;;0.83;0.60;;;10.00;62.70;;;;;;5046420;28;22175;-57
2023/12/06 02:46:06;;;;;;;0.70;0.70;;;10.10;62.50;;;;;;5047098;28;20447;-56
2023/12/06 02:48:32;;;;;;;0.97;0.80;;;10.10;62.80;;;;;;5047087;28;20280;-53
2023/12/06 02:50:58;;;;;;;0.77;0.77;;;10.10;62.60;;;;;;5047021;28;20434;-56
2023/12/06 02:53:23;;;;;;;0.90;0.70;;;10.10;62.90;;;;;;5045257;28;20466;-56
2023/12/06 02:55:49;;;;;;;1.00;0.80;;;10.20;63.00;;;;;;5048392;28;20724;-52
2023/12/06 02:58:15;;;;;;;0.90;0.70;;;10.20;62.80;;;;;;5045693;28;20671;-53
2023/12/06 03:00:40;;;;;;;0.70;0.60;;;10.30;62.50;;;;;;5047214;28;20224;-55
2023/12/06 03:03:06;;;;;;;1.07;0.97;;;10.30;62.30;;;;;;5046594;28;20264;-55
2023/12/06 03:05:31;;;;;;;0.70;0.60;;;10.30;62.30;;;;;;5045498;28;20196;-57
2023/12/06 03:07:57;;;;;;;0.70;0.70;;;10.40;62.40;;;;;;5038859;28;20238;-56
2023/12/06 03:10:22;;;;;;;1.03;0.90;;;10.40;62.10;;;;;;5042954;28;20211;-53
2023/12/06 03:12:48;;;;;;;1.10;0.70;;;10.40;62.20;;;;;;5040581;28;20217;-56
2023/12/06 03:15:13;;;;;;;0.70;0.70;;;10.40;62.20;;;;;;5046517;28;20204;-55
2023/12/06 03:17:39;;;;;;;0.70;0.70;;;10.50;62.00;;;;;;5045010;28;20188;-55
2023/12/06 03:20:06;;;;;;;0.67;0.67;;;10.50;61.60;;;;;;5043064;28;20232;-53
2023/12/06 03:22:32;;;;;;;0.60;0.60;;;10.40;61.50;;;;;;5046763;28;20267;-53
2023/12/06 03:24:58;;;;;;;0.70;0.70;;;10.30;61.30;;;;;;5047197;28;20431;-55
2023/12/06 03:27:23;;;;;;;0.80;0.67;;;10.10;60.80;;;;;;5045807;28;20847;-55
2023/12/06 03:29:49;;;;;;;0.80;0.80;;;10.00;62.00;;;;;;5049099;28;20208;-53
2023/12/06 03:32:15;;;;;;;0.70;0.70;;;9.90;63.30;;;;;;5046552;28;20212;-54
2023/12/06 03:34:40;;;;;;;1.20;0.63;;;9.90;63.40;;;;;;5048935;28;20648;-54
2023/12/06 03:37:06;;;;;;;1.00;0.70;;;9.70;63.50;;;;;;5045712;28;20287;-53
2023/12/06 03:39:32;;;;;;;1.53;0.87;;;9.80;63.40;;;;;;5045202;28;20228;-55
2023/12/06 03:41:59;;;;;;;0.90;0.90;;;9.70;63.80;;;;;;5044666;28;20185;-53
2023/12/06 03:44:25;;;;;;;1.03;0.73;;;9.50;64.10;;;;;;5044463;28;20440;-53
2023/12/06 03:46:50;;;;;;;1.70;0.87;;;9.60;64.50;;;;;;5047959;28;20530;-53
2023/12/06 03:49:16;;;;;;;1.10;0.70;;;9.50;64.40;;;;;;5043166;28;20465;-53
2023/12/06 03:51:42;;;;;;;1.97;0.97;;;9.50;64.50;;;;;;5043640;28;20212;-54
2023/12/06 03:54:07;;;;;;;2.03;0.73;;;9.50;64.80;;;;;;5042481;28;20303;-53
2023/12/06 03:56:33;;;;;;;0.80;0.80;;;9.40;64.90;;;;;;5046378;28;20219;-55
2023/12/06 03:58:59;;;;;;;1.10;1.00;;;9.60;65.10;;;;;;5044405;28;20253;-57
2023/12/06 04:01:24;;;;;;;1.00;0.90;;;9.70;64.70;;;;;;5041664;28;20219;-56
2023/12/06 04:03:50;;;;;;;0.90;0.90;;;9.80;64.40;;;;;;5044833;28;20272;-53
2023/12/06 04:06:15;;;;;;;0.87;0.87;;;9.70;63.90;;;;;;5040790;28;20188;-56
2023/12/06 04:08:41;;;;;;;1.20;0.97;;;9.40;64.90;;;;;;5047610;28;20586;-57
2023/12/06 04:11:06;;;;;;;0.77;0.77;;;9.50;65.20;;;;;;5045710;28;20235;-54
2023/12/06 04:13:32;;;;;;;0.80;0.70;;;9.50;65.20;;;;;;5047422;28;20189;-54
2023/12/06 04:15:57;;;;;;;1.10;1.00;;;9.40;65.10;;;;;;5044292;28;20211;-52
2023/12/06 04:18:23;;;;;;;0.70;0.70;;;9.40;65.30;;;;;;5042970;28;20188;-55
2023/12/06 04:20:49;;;;;;;1.73;0.80;;;9.40;65.50;;;;;;5044934;28;20188;-53
2023/12/06 04:23:15;;;;;;;1.37;0.73;;;9.30;65.90;;;;;;5045010;28;20250;-56
2023/12/06 04:25:40;;;;;;;0.87;0.70;;;9.40;65.50;;;;;;5045820;28;21172;-54
2023/12/06 04:28:06;;;;;;;1.03;0.90;;;9.50;64.90;;;;;;5046392;28;20192;-56
2023/12/06 04:30:31;;;;;;;3.80;0.77;;;9.70;64.50;;;;;;5045920;28;20223;-57
2023/12/06 04:32:57;;;;;;;0.60;0.50;;;9.80;63.90;;;;;;5041373;28;20299;-57
2023/12/06 04:35:22;;;;;;;0.80;0.77;;;9.80;63.90;;;;;;5043269;28;20216;-55
2023/12/06 04:37:48;;;;;;;0.60;0.60;;;9.90;63.50;;;;;;5044836;28;20184;-54
2023/12/06 04:40:13;;;;;;;0.67;0.67;;;9.80;63.10;;;;;;5044059;28;20205;-55
2023/12/06 04:42:39;;;;;;;1.37;0.60;;;9.80;63.20;;;;;;5045210;28;20216;-55
2023/12/06 04:45:05;;;;;;;0.90;0.90;;;9.90;62.90;;;;;;5043358;28;20268;-55
2023/12/06 04:47:30;;;;;;;1.30;0.80;;;9.60;63.20;;;;;;5043953;28;20180;-55
2023/12/06 04:49:56;;;;;;;0.73;0.70;;;9.80;63.30;;;;;;5046471;28;20208;-58
2023/12/06 04:52:22;;;;;;;1.23;0.70;;;9.80;63.30;;;;;;5047090;28;20223;-59
2023/12/06 04:54:48;;;;;;;1.10;1.03;;;9.70;63.50;;;;;;5045658;28;20189;-57
2023/12/06 04:57:14;;;;;;;0.83;0.70;;;9.90;63.00;;;;;;5045476;28;20451;-56
2023/12/06 04:59:40;;;;;;;0.67;0.60;;;9.80;62.90;;;;;;5043418;28;20204;-58
2023/12/06 05:02:06;;;;;;;0.80;0.57;;;9.80;63.10;;;;;;5046276;28;20997;-55
2023/12/06 05:04:31;;;;;;;0.73;0.73;;;9.70;62.90;;;;;;5042662;28;20188;-56
2023/12/06 05:06:57;;;;;;;0.60;0.60;;;9.80;62.70;;;;;;5043604;28;20443;-56
2023/12/06 05:09:23;;;;;;;1.53;0.60;;;9.90;62.70;;;;;;5044478;28;20208;-58
2023/12/06 05:11:48;;;;;;;0.60;0.50;;;9.80;62.90;;;;;;5046942;28;20224;-56
2023/12/06 05:14:14;;;;;;;0.80;0.60;;;9.70;63.00;;;;;;5044405;28;20216;-56
2023/12/06 05:16:39;;;;;;;0.90;0.60;;;9.60;62.90;;;;;;5047520;28;20181;-56
2023/12/06 05:19:06;;;;;;;1.03;0.80;;;9.50;63.30;;;;;;5034572;28;20239;-54
2023/12/06 05:21:32;;;;;;;1.20;0.80;;;9.70;63.60;;;;;;5044213;28;20589;-57
2023/12/06 05:23:57;;;;;;;1.77;0.80;;;9.50;63.00;;;;;;5044160;28;20446;-52
2023/12/06 05:26:25;;;;;;;1.97;0.80;;;9.60;63.40;;;;;;5046702;28;20431;-57
2023/12/06 05:28:51;;;;;;;1.13;0.63;;;9.80;63.30;;;;;;5046792;28;20208;-52
2023/12/06 05:31:17;;;;;;;2.40;0.77;;;9.80;63.60;;;;;;5048388;28;20527;-57
2023/12/06 05:33:42;;;;;;;0.70;0.70;;;9.80;62.90;;;;;;5050524;28;20734;-55
2023/12/06 05:36:08;;;;;;;1.60;0.60;;;9.60;63.10;;;;;;5049433;28;20242;-57
2023/12/06 05:38:34;;;;;;;1.57;0.60;;;9.60;63.40;;;;;;5046911;28;20180;-56
2023/12/06 05:41:00;;;;;;;0.50;0.50;;;9.50;63.50;;;;;;5047178;28;20435;-58
2023/12/06 05:43:26;;;;;;;1.63;0.80;;;9.80;63.20;;;;;;5048788;28;20180;-54
2023/12/06 05:45:52;;;;;;;1.37;0.90;;;10.00;61.40;;;;;;5046479;28;20899;-56
2023/12/06 05:48:17;;;;;;;0.70;0.50;;;10.10;61.20;;;;;;5047220;28;20181;-57
2023/12/06 05:50:43;;;;;;;0.57;0.57;;;10.10;60.90;;;;;;5047233;28;20496;-57
2023/12/06 05:53:08;;;;;;;6.83;0.60;;;9.90;62.00;;;;;;5048395;28;20216;-58
2023/12/06 05:55:34;;;;;;;0.90;0.90;;;9.90;62.00;;;;;;5046556;28;20573;-57
2023/12/06 05:57:59;;;;;;;1.00;0.70;;;10.00;60.90;;;;;;5047307;28;20225;-59
2023/12/06 06:00:25;;;;;;;1.03;0.87;;;10.20;60.60;;;;;;5046408;28;20655;-55
2023/12/06 06:02:52;;;;;;;1.10;0.93;;;10.20;60.40;;;;;;5047286;28;20622;-58
2023/12/06 06:05:18;;;;;;;1.40;0.73;;;10.20;60.20;;;;;;5048900;28;20209;-58
2023/12/06 06:07:44;;;;;;;0.90;0.80;;;10.20;60.30;;;;;;5044431;28;20505;-58
2023/12/06 06:10:10;;;;;;;1.23;1.10;;;10.20;60.30;;;;;;5048889;28;20201;-57
2023/12/06 06:12:35;;;;;;;1.13;1.10;;;10.20;60.20;;;;;;5047144;28;20585;-57
2023/12/06 06:15:02;;;;;;;1.37;1.23;;;10.10;60.70;;;;;;5047719;28;20272;-58
2023/12/06 06:17:27;;;;;;;2.40;1.10;;;10.00;60.70;;;;;;5044574;28;20211;-58
2023/12/06 06:19:53;;;;;;;1.87;1.20;;;10.00;61.10;;;;;;5046797;28;20455;-54
2023/12/06 06:22:18;;;;;;;1.10;1.00;;;10.10;61.30;;;;;;5048879;28;20191;-55
2023/12/06 06:24:44;;;;;;;1.90;0.80;;;10.00;61.20;;;;;;5049493;28;20192;-54
2023/12/06 06:27:10;;;;;;;2.80;0.90;;;10.00;60.90;;;;;;5047331;28;20220;-57
2023/12/06 06:29:37;;;;;;;1.10;0.80;;;10.00;61.20;;;;;;5048976;28;20274;-54
2023/12/06 06:32:03;;;;;;;0.67;0.67;;;10.10;61.10;;;;;;5045266;28;20213;-54
2023/12/06 06:34:29;;;;;;;0.90;0.70;;;10.20;60.50;;;;;;5044152;28;20457;-53
2023/12/06 06:36:54;;;;;;;0.70;0.70;;;10.20;60.30;;;;;;5047402;28;20431;-53
2023/12/06 06:39:20;;;;;;;0.73;0.73;;;10.30;60.00;;;;;;5043037;28;20200;-54
2023/12/06 06:41:46;;;;;;;1.03;0.93;;;10.40;59.90;;;;;;5040267;28;20193;-56
2023/12/06 06:44:12;;;;;;;1.13;0.80;;;10.40;59.70;;;;;;5042215;28;20216;-56
2023/12/06 06:46:37;;;;;;;0.80;0.80;;;10.30;59.80;;;;;;5045349;28;20477;-53
2023/12/06 06:49:03;;;;;;;0.80;0.80;;;10.20;59.90;;;;;;5042514;28;20212;-57
2023/12/06 06:51:33;;;;;;;1.10;1.00;;;10.10;59.80;;;;;;5042403;28;20215;-53
2023/12/06 06:53:59;;;;;;;1.13;0.90;;;10.00;60.50;;;;;;5040214;28;20268;-53
2023/12/06 06:56:24;;;;;;;0.97;0.73;;;9.90;61.80;;;;;;5043204;28;20429;-54
2023/12/06 06:58:51;;;;;;;1.60;1.10;;;10.00;60.40;;;;;;5043889;28;20208;-57
2023/12/06 07:01:18;;;;;;;1.80;0.90;;;10.10;60.30;;;;;;5043586;28;20248;-54
2023/12/06 07:03:43;;;;;;;0.90;0.80;;;10.10;60.40;;;;;;5048105;28;20465;-55
2023/12/06 07:06:09;;;;;;;1.23;0.83;;;10.20;60.20;;;;;;5039064;28;20432;-56
2023/12/06 07:08:35;;;;;;;1.03;0.87;;;10.20;60.10;;;;;;5044975;28;20187;-55
2023/12/06 07:11:01;;;;;;;2.00;0.83;;;10.30;60.00;;;;;;5041087;28;20258;-53
2023/12/06 07:13:26;;;;;;;2.10;0.90;;;10.40;60.00;;;;;;5046595;28;20219;-55
2023/12/06 07:15:52;;;;;;;1.13;0.77;;;10.20;59.80;;;;;;5041100;28;20188;-53
2023/12/06 07:18:18;;;;;;;1.20;1.07;;;10.20;60.00;;;;;;5037742;28;20275;-55
2023/12/06 07:20:44;;;;;;;1.10;0.97;;;10.20;59.90;;;;;;5044334;28;20184;-57
2023/12/06 07:23:10;;;;;;;1.10;0.90;;;10.10;60.20;;;;;;5044538;28;20439;-55
2023/12/06 07:25:35;;;;;;;1.00;0.77;;;10.00;60.30;;;;;;5041700;28;20419;-56
2023/12/06 07:28:02;;;;;;;0.80;0.80;;;10.00;61.50;;;;;;5044591;28;20223;-53
2023/12/06 07:30:28;;;;;;;1.33;0.77;;;10.00;60.70;;;;;;5039466;28;20237;-53
2023/12/06 07:32:53;;;;;;;3.03;1.03;;;10.10;60.70;;;;;;5040729;28;20499;-53
2023/12/06 07:35:19;;;;;;;1.03;0.87;;;10.10;60.70;;;;;;5044046;28;20205;-54
2023/12/06 07:37:44;;;;;;;1.80;1.10;;;10.00;60.50;;;;;;5044601;28;20280;-56
2023/12/06 07:40:11;;;;;;;1.97;1.10;;;10.10;60.70;;;;;;5045128;28;20205;-54
2023/12/06 07:42:37;;;;;;;1.80;1.27;;;10.10;60.70;;;;;;5039382;28;20200;-55
2023/12/06 07:45:03;;;;;;;1.27;1.03;;;9.80;62.20;;;;;;5047212;28;20506;-56
2023/12/06 07:47:29;;;;;;;1.00;0.87;;;9.70;63.10;;;;;;5043996;28;20779;-57
2023/12/06 07:49:54;;;;;;;1.47;1.20;;;9.80;63.20;;;;;;5044456;28;20216;-55
2023/12/06 07:52:20;;;;;;;0.90;0.90;;;9.80;63.10;;;;;;5042345;28;20212;-55
2023/12/06 07:54:46;;;;;;;2.40;1.10;;;9.70;62.90;;;;;;5040371;28;20188;-55
2023/12/06 07:57:13;;;;;;;1.00;0.90;;;9.70;63.30;;;;;;5043968;28;20266;-56
2023/12/06 07:59:39;;;;;;;4.20;1.17;;;9.60;63.40;;;;;;5046969;28;20451;-51
2023/12/06 08:02:04;;;;;;;1.70;1.40;;;9.50;64.00;;;;;;5043025;28;20496;-57
2023/12/06 08:04:30;;;;;;;1.80;1.30;;;9.70;64.00;;;;;;5040860;28;20189;-55
2023/12/06 08:06:56;;;;;;;1.77;1.27;;;9.80;63.70;;;;;;5045148;28;20538;-56
2023/12/06 08:09:22;;;;;;;1.60;1.20;;;9.90;63.20;;;;;;5044548;28;20891;-53
2023/12/06 08:11:48;;;;;;;1.57;1.10;;;9.80;63.00;;;;;;5040916;28;20299;-54
2023/12/06 08:14:14;;;;;;;1.10;1.00;;;10.00;61.80;;;;;;5040328;28;20584;-56
2023/12/06 08:16:39;;;;;;;1.10;1.10;;;9.70;63.30;;;;;;5042755;28;20192;-54
2023/12/06 08:19:05;;;;;;;1.00;0.90;;;9.90;63.20;;;;;;5038106;28;20319;-54
2023/12/06 08:21:31;;;;;;;1.80;1.60;;;9.80;63.40;;;;;;5038672;28;20185;-58
2023/12/06 08:23:56;;;;;;;1.73;1.50;;;9.90;63.10;;;;;;5045964;28;20238;-56
2023/12/06 08:26:22;;;;;;;1.80;1.47;;;9.70;63.40;;;;;;5041814;28;20185;-53
2023/12/06 08:28:47;;;;;;;4.40;1.60;;;9.70;64.00;;;;;;5046159;28;20700;-52
2023/12/06 08:31:13;;;;;;;3.00;1.60;;;9.80;64.40;;;;;;5047225;28;20606;-58
2023/12/06 08:33:39;;;;;;;2.77;2.57;;;9.90;64.30;;;;;;5045044;28;20675;-58
2023/12/06 08:36:05;;;;;;;4.70;4.00;;;9.90;63.50;;;;;;5039237;28;20238;-57
2023/12/06 08:38:30;;;;;;;4.20;3.80;;;9.50;63.10;;;;;;5042560;28;20192;-56
2023/12/06 08:40:56;;;;;;;4.33;4.03;;;9.00;63.90;;;;;;5039458;28;20427;-55
2023/12/06 08:43:21;;;;;;;4.77;4.30;;;9.00;64.80;;;;;;5041141;28;20722;-55
2023/12/06 08:45:47;;;;;;;6.43;5.83;;;8.70;65.30;;;;;;5044788;28;20227;-56
2023/12/06 08:48:13;;;;;;;6.57;5.60;;;8.60;65.70;;;;;;5045968;28;20184;-56
2023/12/06 08:50:38;;;;;;;5.50;4.90;;;8.70;66.40;;;;;;5047231;28;20228;-54
2023/12/06 08:53:04;;;;;;;5.57;5.07;;;8.80;65.90;;;;;;5042039;28;20232;-53
2023/12/06 08:55:29;;;;;;;6.30;5.70;;;8.60;66.50;;;;;;5040018;28;20189;-55
2023/12/06 08:57:55;;;;;;;6.03;5.43;;;8.70;66.90;;;;;;5039768;28;20189;-57
2023/12/06 09:00:20;;;;;;;6.53;5.80;;;8.70;66.20;;;;;;5040005;28;20223;-56
2023/12/06 09:02:46;;;;;;;6.03;5.53;;;8.50;66.50;;;;;;5042477;28;20208;-53
2023/12/06 09:05:12;;;;;;;7.93;5.50;;;8.50;67.00;;;;;;5042298;28;20771;-55
2023/12/06 09:07:38;;;;;;;7.07;6.37;;;8.20;67.40;;;;;;5037673;28;20285;-54
2023/12/06 09:10:04;;;;;;;6.77;6.17;;;8.10;67.90;;;;;;5042227;28;20219;-53
2023/12/06 09:12:31;;;;;;;9.30;6.93;;;8.00;68.10;;;;;;5040062;28;20532;-57
2023/12/06 09:14:56;;;;;;;6.23;5.63;;;8.10;68.30;;;;;;5036259;28;20444;-57
2023/12/06 09:17:22;;;;;;;6.90;6.30;;;8.20;68.30;;;;;;5037664;28;20806;-58
2023/12/06 09:19:48;;;;;;;7.20;6.50;;;8.10;68.10;;;;;;5043700;28;20212;-55
2023/12/06 09:22:15;;;;;;;8.03;6.73;;;8.00;68.70;;;;;;5041690;28;20623;-55
2023/12/06 09:24:43;;;;;;;6.57;6.00;;;8.20;68.10;;;;;;5041087;28;20530;-55
2023/12/06 09:27:08;;;;;;;7.80;6.53;;;8.50;67.40;;;;;;5039999;28;20471;-57
2023/12/06 09:29:34;;;;;;;7.90;7.20;;;8.70;66.70;;;;;;5040947;28;20490;-57
2023/12/06 09:31:59;;;;;;;6.97;6.30;;;8.70;66.40;;;;;;5038545;28;20255;-53
2023/12/06 09:34:25;;;;;;;7.77;6.97;;;8.60;66.20;;;;;;5038252;28;20181;-56
2023/12/06 09:36:51;;;;;;;7.83;6.67;;;8.40;66.70;;;;;;5039230;28;20185;-57
2023/12/06 09:39:20;;;;;;;8.50;7.30;;;8.30;67.40;;;;;;5040166;28;20248;-56
2023/12/06 09:41:46;;;;;;;7.50;6.70;;;8.40;67.50;;;;;;5044991;28;20587;-57
2023/12/06 09:44:12;;;;;;;8.33;7.40;;;8.60;67.50;;;;;;5042001;28;20420;-53
2023/12/06 09:46:37;;;;;;;7.17;6.47;;;8.70;66.80;;;;;;5042155;28;20201;-58
2023/12/06 09:49:03;;;;;;;7.83;6.70;;;8.50;65.90;;;;;;5046166;28;20208;-56
2023/12/06 09:51:29;;;;;;;9.43;7.80;;;8.50;66.50;;;;;;5041204;28;20305;-57
2023/12/06 09:53:55;;;;;;;8.30;7.40;;;8.70;66.30;;;;;;5043975;28;20196;-58
2023/12/06 09:56:21;;;;;;;7.70;6.70;;;8.80;65.80;;;;;;5040117;28;20569;-57
2023/12/06 09:58:46;;;;;;;8.37;7.33;;;8.60;65.20;;;;;;5045521;28;21027;-58
2023/12/06 10:01:12;;;;;;;8.60;7.80;;;8.70;65.60;;;;;;5044417;28;20541;-57
2023/12/06 10:03:38;;;;;;;10.00;7.57;;;8.60;65.60;;;;;;5046652;28;20257;-55
2023/12/06 10:06:04;;;;;;;8.40;7.00;;;8.50;65.40;;;;;;5044041;28;20949;-56
2023/12/06 10:08:34;;;;;;;7.77;7.00;;;8.60;65.50;;;;;;5044683;28;20189;-56
2023/12/06 10:11:07;;;;;;;9.10;7.50;;;8.60;65.50;;;;;;5037604;28;20427;-58
2023/12/06 10:13:37;;;;;;;9.90;7.77;;;8.70;65.20;;;;;;5041574;28;20443;-55
2023/12/06 10:16:21;;;;;;;9.30;7.77;;;8.80;65.30;;;;;;5044388;28;21185;-54
2023/12/06 10:18:49;;;;;;;8.53;7.63;;;9.00;65.50;;;;;;5041774;28;20463;-55
2023/12/06 10:21:19;;;;;;;9.53;7.97;;;8.90;64.60;;;;;;5049190;28;20510;-54
2023/12/06 10:23:57;;;;;;;8.17;7.20;;;8.60;64.80;;;;;;5048835;28;20512;-52
2023/12/06 10:26:25;;;;;;;8.00;7.20;;;8.50;65.40;;;;;;5043889;28;20422;-56
2023/12/06 10:28:50;;;;;;;8.33;6.87;;;8.60;65.50;;;;;;5046442;28;20445;-54
2023/12/06 10:31:17;;;;;;;7.90;7.10;;;8.40;65.00;;;;;;5046586;28;20858;-52
2023/12/06 10:33:43;;;;;;;9.33;7.93;;;8.60;66.00;;;;;;5041856;28;20332;-53
2023/12/06 10:36:10;;;;;;;7.30;6.60;;;8.60;64.20;;;;;;5042651;28;20947;-52
2023/12/06 10:38:42;;;;;;;7.50;6.80;;;8.50;64.30;;;;;;5041534;28;20919;-55
2023/12/06 10:41:11;;;;;;;8.03;7.23;;;8.50;64.90;;;;;;5042539;28;20447;-54
2023/12/06 10:43:38;;;;;;;8.50;7.17;;;8.30;65.00;;;;;;5040609;28;20432;-55
2023/12/06 10:46:04;;;;;;;7.53;6.60;;;8.50;65.20;;;;;;5046137;28;20522;-56
2023/12/06 10:48:31;;;;;;;9.30;7.23;;;8.60;64.70;;;;;;5044266;28;20426;-54
2023/12/06 10:50:58;;;;;;;7.40;6.43;;;8.70;64.40;;;;;;5044524;28;20443;-54
2023/12/06 10:53:23;;;;;;;10.20;7.00;;;8.80;64.00;;;;;;5038687;28;20506;-53
2023/12/06 10:55:50;;;;;;;8.60;7.57;;;8.60;64.20;;;;;;5046667;28;20479;-56
2023/12/06 10:58:17;;;;;;;9.77;7.20;;;8.70;64.90;;;;;;5040350;28;20246;-55
2023/12/06 11:00:42;;;;;;;7.40;6.70;;;8.60;64.20;;;;;;5043913;28;20432;-55
2023/12/06 11:03:09;;;;;;;8.10;7.00;;;8.50;64.40;;;;;;5043361;28;20530;-53
2023/12/06 11:05:39;;;;;;;9.20;7.50;;;8.50;65.20;;;;;;5041882;28;20446;-52
2023/12/06 11:08:37;;;;;;;8.93;7.70;;;8.80;64.80;;;;;;5043578;28;20854;-52
2023/12/06 11:11:33;;;;;;;7.30;6.60;;;8.70;64.30;;;;;;5044810;28;20445;-55
2023/12/06 11:14:08;;;;;;;8.50;7.20;;;8.70;64.10;;;;;;5042286;28;20505;-53
2023/12/06 11:16:56;;;;;;;7.63;6.83;;;8.70;64.40;;;;;;5043248;28;21201;-54
2023/12/06 11:19:23;;;;;;;10.83;6.90;;;9.10;64.20;;;;;;5036071;28;20884;-52
2023/12/06 11:21:48;;;;;;;7.23;6.53;;;9.10;63.70;;;;;;5043175;28;20989;-55
2023/12/06 11:24:15;;;;;;;8.77;6.50;;;9.00;63.40;;;;;;5039027;28;20439;-56
2023/12/06 11:26:41;;;;;;;7.50;6.70;;;8.90;63.20;;;;;;5048251;28;20195;-54
2023/12/06 11:29:07;;;;;;;7.67;6.87;;;9.00;63.40;;;;;;5040546;28;20467;-54
2023/12/06 11:31:36;;;;;;;9.07;5.70;;;8.90;63.40;;;;;;5041959;28;20477;-55
2023/12/06 11:34:12;;;;;;;7.93;6.77;;;8.80;63.50;;;;;;5039891;28;20635;-52
2023/12/06 11:36:38;;;;;;;6.60;6.00;;;8.90;63.60;;;;;;5041183;28;20433;-51
2023/12/06 11:39:14;;;;;;;6.83;5.80;;;8.90;63.70;;;;;;5042777;28;20473;-54
2023/12/06 11:41:51;;;;;;;7.37;6.40;;;8.90;63.40;;;;;;5043093;28;20451;-53
2023/12/06 11:44:17;;;;;;;7.20;6.50;;;9.00;63.60;;;;;;5039501;28;20458;-55
2023/12/06 11:46:55;;;;;;;7.77;6.23;;;9.00;63.50;;;;;;5046137;28;20420;-52
2023/12/06 11:49:25;;;;;;;6.70;6.00;;;8.70;63.60;;;;;;5042645;28;20566;-51
2023/12/06 11:52:01;;;;;;;7.57;6.30;;;8.60;63.80;;;;;;5043609;28;20467;-55
2023/12/06 11:54:28;;;;;;;7.30;6.50;;;8.70;63.90;;;;;;5041627;28;20420;-52
2023/12/06 11:57:07;;;;;;;9.17;6.30;;;8.80;63.60;;;;;;5044074;28;20925;-53
2023/12/06 11:59:34;;;;;;;9.63;7.30;;;8.70;63.70;;;;;;5041322;28;20450;-52
2023/12/06 12:02:00;;;;;;;8.47;7.07;;;8.90;63.60;;;;;;5039116;28;20462;-57
2023/12/06 12:04:26;;;;;;;11.20;6.90;;;8.90;63.10;;;;;;5041354;28;20932;-51
2023/12/06 12:06:52;;;;;;;8.70;7.70;;;8.90;63.20;;;;;;5043283;28;20661;-55
2023/12/06 12:09:20;;;;;;;8.13;7.33;;;8.70;63.00;;;;;;5039846;28;20556;-53
2023/12/06 12:11:46;;;;;;;7.20;6.50;;;8.60;63.60;;;;;;5043306;28;20474;-54
2023/12/06 12:14:12;;;;;;;7.00;6.37;;;8.60;63.50;;;;;;5040907;28;20424;-55
2023/12/06 12:16:39;;;;;;;7.50;6.70;;;8.80;63.70;;;;;;5042805;28;20780;-54
2023/12/06 12:19:06;;;;;;;7.93;7.20;;;8.90;62.80;;;;;;5042490;28;20216;-51
2023/12/06 12:21:32;;;;;;;7.00;6.30;;;8.80;62.40;;;;;;5041509;28;20449;-55
2023/12/06 12:24:00;;;;;;;6.83;5.93;;;8.80;62.80;;;;;;5037146;28;20506;-52
2023/12/06 12:26:25;;;;;;;7.93;7.13;;;8.90;63.30;;;;;;5044607;28;20262;-54
2023/12/06 12:28:51;;;;;;;7.37;6.50;;;8.80;62.80;;;;;;5040934;28;20426;-56
2023/12/06 12:31:23;;;;;;;7.33;6.63;;;8.90;63.20;;;;;;5044483;28;20189;-52
2023/12/06 12:33:49;;;;;;;8.97;6.87;;;8.60;62.50;;;;;;5042794;28;20192;-54
2023/12/06 12:36:16;;;;;;;8.23;6.60;;;8.60;63.40;;;;;;5046456;28;20439;-53
2023/12/06 12:38:43;;;;;;;8.10;6.97;;;8.90;63.40;;;;;;5044478;28;20459;-55
2023/12/06 12:41:09;;;;;;;8.43;6.60;;;8.90;62.90;;;;;;5045054;28;20435;-52
2023/12/06 12:43:35;;;;;;;8.17;7.10;;;8.90;62.90;;;;;;5039659;28;20431;-54
2023/12/06 12:46:02;;;;;;;7.67;6.40;;;8.90;62.90;;;;;;5044551;28;20790;-51
2023/12/06 12:48:28;;;;;;;7.13;6.17;;;9.00;62.50;;;;;;5038529;28;20185;-56
2023/12/06 12:51:14;;;;;;;10.23;6.10;;;8.80;62.70;;;;;;5045790;28;20467;-55